Condor Trader — DUIL — position and weather

sailwx.info

Track history (hours):
 
Tides and Currents Weather Stations Pressure Air Temp Water Temp Dewpoint Dewpoint Depression Visibility Wind Speed Wind Dir Waves Ship Positions

Condor Trader

Last reported at 2018-Jan-07 08:09 UTC. Time now 2018-Jan-19 11:47 UTC.
Position S 32°42' W 071°39'.
Warning: this ship's position is 12 days out of date.

Length 149 m; draft 8.5 m.

Type: Tanker. MMSI: 548944000.

Date/timePositionNaut miles runAvg speedWind from/ knotsBaromVisibWave heightAir tempDewpointWater temp
2018-Jan-07 08:09S 32°42' W 071°39'310.1
2018-Jan-07 07:50S 32°44' W 071°36'5 0.1
2018-Jan-05 13:09S 32°45' W 071°31'1 4.6
2018-Jan-05 13:00S 32°45' W 071°32'3 6.1
2018-Jan-05 12:30S 32°45' W 071°35'510.1
2018-Jan-05 12:01S 32°46' W 071°41'712.7
2018-Jan-05 11:26S 32°46' W 071°50'4 8.8
2018-Jan-05 10:59S 32°46' W 071°55'4 8.3
2018-Jan-05 10:31S 32°46' W 071°59'1 1.2
2018-Jan-05 09:59S 32°47' W 071°59'1 1.2
2018-Jan-05 09:29S 32°47' W 071°58'1 1.1
2018-Jan-05 08:34S 32°48' W 071°58'0 0.8
2018-Jan-05 08:23S 32°48' W 071°58'2 6.0
2018-Jan-05 07:59S 32°46' W 071°59'3 0.8
2018-Jan-05 04:09S 32°45' W 072°03'6 1.4
2018-Jan-04 23:44S 32°39' W 072°02'314.3
2018-Jan-04 23:30S 32°42' W 072°03'714.1
2018-Jan-04 23:00S 32°49' W 072°04'714.1
2018-Jan-04 22:30S 32°56' W 072°06'1014.4
2018-Jan-04 21:51S 33°05' W 072°09'  
Track history (hours):
 
Tides and Currents Weather Stations Pressure Air Temp Water Temp Dewpoint Dewpoint Depression Visibility Wind Speed Wind Dir Waves Ship Positions

Condor Trader

Last reported at 2018-Jan-07 08:09 UTC. Time now 2018-Jan-19 11:47 UTC.
Position S 32°42' W 071°39'.
Warning: this ship's position is 12 days out of date.

Length 149 m; draft 8.5 m.

Type: Tanker. MMSI: 548944000.

Date/timePositionNaut miles runAvg speedWind from/ knotsBaromVisibWave heightAir tempDewpointWater temp
2018-Jan-07 08:09S 32°42' W 071°39'310.1
2018-Jan-07 07:50S 32°44' W 071°36'5 0.1
2018-Jan-05 13:09S 32°45' W 071°31'1 4.6
2018-Jan-05 13:00S 32°45' W 071°32'3 6.1
2018-Jan-05 12:30S 32°45' W 071°35'510.1
2018-Jan-05 12:01S 32°46' W 071°41'712.7
2018-Jan-05 11:26S 32°46' W 071°50'4 8.8
2018-Jan-05 10:59S 32°46' W 071°55'4 8.3
2018-Jan-05 10:31S 32°46' W 071°59'1 1.2
2018-Jan-05 09:59S 32°47' W 071°59'1 1.2
2018-Jan-05 09:29S 32°47' W 071°58'1 1.1
2018-Jan-05 08:34S 32°48' W 071°58'0 0.8
2018-Jan-05 08:23S 32°48' W 071°58'2 6.0
2018-Jan-05 07:59S 32°46' W 071°59'3 0.8
2018-Jan-05 04:09S 32°45' W 072°03'6 1.4
2018-Jan-04 23:44S 32°39' W 072°02'314.3
2018-Jan-04 23:30S 32°42' W 072°03'714.1
2018-Jan-04 23:00S 32°49' W 072°04'714.1
2018-Jan-04 22:30S 32°56' W 072°06'1014.4
2018-Jan-04 21:51S 33°05' W 072°09'  

Dump ship's entire track history